sensor_id;sensor_type;location;lat;lon;timestamp;P1;durP1;ratioP1;P2;durP2;ratioP2
14900;SDS011;7542;49.078;9.194;2023-11-21T00:00:53;1.50;;;0.50;;
14900;SDS011;7542;49.078;9.194;2023-11-21T00:01:55;0.55;;;0.50;;
14900;SDS011;7542;49.078;9.194;2023-11-21T00:02:58;0.77;;;0.70;;
14900;SDS011;7542;49.078;9.194;2023-11-21T00:04:00;0.50;;;0.40;;
14900;SDS011;7542;49.078;9.194;2023-11-21T00:05:03;0.63;;;0.63;;
14900;SDS011;7542;49.078;9.194;2023-11-21T00:06:06;0.50;;;0.50;;
14900;SDS011;7542;49.078;9.194;2023-11-21T00:07:10;0.70;;;0.70;;
14900;SDS011;7542;49.078;9.194;2023-11-21T00:08:12;0.45;;;0.45;;
14900;SDS011;7542;49.078;9.194;2023-11-21T00:09:14;0.73;;;0.73;;
14900;SDS011;7542;49.078;9.194;2023-11-21T00:10:16;0.40;;;0.40;;
14900;SDS011;7542;49.078;9.194;2023-11-21T00:11:18;0.52;;;0.52;;
14900;SDS011;7542;49.078;9.194;2023-11-21T00:12:20;0.55;;;0.47;;
14900;SDS011;7542;49.078;9.194;2023-11-21T00:13:22;0.40;;;0.40;;
14900;SDS011;7542;49.078;9.194;2023-11-21T00:14:24;0.47;;;0.47;;
14900;SDS011;7542;49.078;9.194;2023-11-21T00:15:26;0.40;;;0.40;;
14900;SDS011;7542;49.078;9.194;2023-11-21T00:16:28;0.52;;;0.52;;
14900;SDS011;7542;49.078;9.194;2023-11-21T00:17:30;0.70;;;0.70;;
14900;SDS011;7542;49.078;9.194;2023-11-21T00:18:32;0.60;;;0.60;;
14900;SDS011;7542;49.078;9.194;2023-11-21T00:19:35;0.45;;;0.45;;
14900;SDS011;7542;49.078;9.194;2023-11-21T00:20:37;0.47;;;0.47;;
14900;SDS011;7542;49.078;9.194;2023-11-21T00:21:39;0.50;;;0.45;;
14900;SDS011;7542;49.078;9.194;2023-11-21T00:22:41;0.55;;;0.55;;
14900;SDS011;7542;49.078;9.194;2023-11-21T00:23:43;0.55;;;0.55;;
14900;SDS011;7542;49.078;9.194;2023-11-21T00:24:45;0.50;;;0.50;;
14900;SDS011;7542;49.078;9.194;2023-11-21T00:25:48;0.40;;;0.40;;
14900;SDS011;7542;49.078;9.194;2023-11-21T00:26:50;0.55;;;0.50;;
14900;SDS011;7542;49.078;9.194;2023-11-21T00:27:52;0.70;;;0.70;;
14900;SDS011;7542;49.078;9.194;2023-11-21T00:28:55;0.40;;;0.40;;
14900;SDS011;7542;49.078;9.194;2023-11-21T00:29:57;0.60;;;0.60;;
14900;SDS011;7542;49.078;9.194;2023-11-21T00:30:59;0.50;;;0.50;;
14900;SDS011;7542;49.078;9.194;2023-11-21T00:32:01;0.73;;;0.63;;
14900;SDS011;7542;49.078;9.194;2023-11-21T00:33:03;0.43;;;0.40;;
14900;SDS011;7542;49.078;9.194;2023-11-21T00:34:05;0.75;;;0.50;;
14900;SDS011;7542;49.078;9.194;2023-11-21T00:35:07;0.60;;;0.60;;
14900;SDS011;7542;49.078;9.194;2023-11-21T00:36:10;1.30;;;0.82;;
14900;SDS011;7542;49.078;9.194;2023-11-21T00:37:12;0.60;;;0.60;;
14900;SDS011;7542;49.078;9.194;2023-11-21T00:38:14;1.15;;;0.38;;
14900;SDS011;7542;49.078;9.194;2023-11-21T00:39:16;0.70;;;0.70;;
14900;SDS011;7542;49.078;9.194;2023-11-21T00:40:17;0.60;;;0.60;;
14900;SDS011;7542;49.078;9.194;2023-11-21T00:41:22;0.50;;;0.50;;
14900;SDS011;7542;49.078;9.194;2023-11-21T00:42:24;0.63;;;0.63;;
14900;SDS011;7542;49.078;9.194;2023-11-21T00:43:26;0.57;;;0.57;;
14900;SDS011;7542;49.078;9.194;2023-11-21T00:44:28;0.57;;;0.57;;
14900;SDS011;7542;49.078;9.194;2023-11-21T00:45:31;0.52;;;0.52;;
14900;SDS011;7542;49.078;9.194;2023-11-21T00:46:32;0.82;;;0.63;;
14900;SDS011;7542;49.078;9.194;2023-11-21T00:47:35;1.13;;;0.50;;
14900;SDS011;7542;49.078;9.194;2023-11-21T00:48:37;0.40;;;0.40;;
14900;SDS011;7542;49.078;9.194;2023-11-21T00:49:39;0.70;;;0.63;;
14900;SDS011;7542;49.078;9.194;2023-11-21T00:50:41;1.00;;;0.60;;
14900;SDS011;7542;49.078;9.194;2023-11-21T00:51:43;0.50;;;0.50;;
14900;SDS011;7542;49.078;9.194;2023-11-21T00:52:45;0.60;;;0.60;;
14900;SDS011;7542;49.078;9.194;2023-11-21T00:53:47;0.50;;;0.50;;
14900;SDS011;7542;49.078;9.194;2023-11-21T00:54:50;0.30;;;0.30;;
14900;SDS011;7542;49.078;9.194;2023-11-21T00:55:52;0.40;;;0.40;;
14900;SDS011;7542;49.078;9.194;2023-11-21T00:56:58;2.15;;;0.80;;
14900;SDS011;7542;49.078;9.194;2023-11-21T00:58:00;0.30;;;0.30;;
14900;SDS011;7542;49.078;9.194;2023-11-21T00:59:04;0.45;;;0.45;;
14900;SDS011;7542;49.078;9.194;2023-11-21T01:00:06;0.40;;;0.40;;
14900;SDS011;7542;49.078;9.194;2023-11-21T01:01:15;1.35;;;0.35;;
14900;SDS011;7542;49.078;9.194;2023-11-21T01:02:18;0.40;;;0.40;;
14900;SDS011;7542;49.078;9.194;2023-11-21T01:03:20;0.47;;;0.47;;
14900;SDS011;7542;49.078;9.194;2023-11-21T01:04:23;0.60;;;0.60;;
14900;SDS011;7542;49.078;9.194;2023-11-21T01:05:25;1.13;;;0.52;;
14900;SDS011;7542;49.078;9.194;2023-11-21T01:06:28;0.40;;;0.40;;
14900;SDS011;7542;49.078;9.194;2023-11-21T01:07:31;0.40;;;0.40;;
14900;SDS011;7542;49.078;9.194;2023-11-21T01:08:33;0.40;;;0.40;;
14900;SDS011;7542;49.078;9.194;2023-11-21T01:09:35;0.32;;;0.30;;
14900;SDS011;7542;49.078;9.194;2023-11-21T01:10:37;0.40;;;0.40;;
14900;SDS011;7542;49.078;9.194;2023-11-21T01:11:39;0.47;;;0.47;;
14900;SDS011;7542;49.078;9.194;2023-11-21T01:12:41;0.40;;;0.40;;
14900;SDS011;7542;49.078;9.194;2023-11-21T01:13:43;0.30;;;0.30;;
14900;SDS011;7542;49.078;9.194;2023-11-21T01:14:46;0.40;;;0.40;;
14900;SDS011;7542;49.078;9.194;2023-11-21T01:15:48;0.40;;;0.40;;
14900;SDS011;7542;49.078;9.194;2023-11-21T01:16:50;0.40;;;0.40;;
14900;SDS011;7542;49.078;9.194;2023-11-21T01:17:52;0.47;;;0.47;;
14900;SDS011;7542;49.078;9.194;2023-11-21T01:18:54;0.40;;;0.40;;
14900;SDS011;7542;49.078;9.194;2023-11-21T01:19:56;0.40;;;0.40;;
14900;SDS011;7542;49.078;9.194;2023-11-21T01:20:59;0.50;;;0.30;;
14900;SDS011;7542;49.078;9.194;2023-11-21T01:22:01;0.50;;;0.45;;
14900;SDS011;7542;49.078;9.194;2023-11-21T01:23:03;0.50;;;0.50;;
14900;SDS011;7542;49.078;9.194;2023-11-21T01:24:06;0.50;;;0.50;;
14900;SDS011;7542;49.078;9.194;2023-11-21T01:25:08;0.30;;;0.27;;
14900;SDS011;7542;49.078;9.194;2023-11-21T01:26:11;0.53;;;0.53;;
14900;SDS011;7542;49.078;9.194;2023-11-21T01:27:14;0.40;;;0.40;;
14900;SDS011;7542;49.078;9.194;2023-11-21T01:28:16;0.40;;;0.40;;
14900;SDS011;7542;49.078;9.194;2023-11-21T01:29:18;0.30;;;0.30;;
14900;SDS011;7542;49.078;9.194;2023-11-21T01:30:20;1.07;;;0.40;;
14900;SDS011;7542;49.078;9.194;2023-11-21T01:31:22;0.50;;;0.50;;
14900;SDS011;7542;49.078;9.194;2023-11-21T01:32:24;0.27;;;0.27;;
14900;SDS011;7542;49.078;9.194;2023-11-21T01:33:26;0.50;;;0.50;;
14900;SDS011;7542;49.078;9.194;2023-11-21T01:34:28;0.37;;;0.37;;
14900;SDS011;7542;49.078;9.194;2023-11-21T01:35:30;0.50;;;0.50;;
14900;SDS011;7542;49.078;9.194;2023-11-21T01:36:32;0.50;;;0.50;;
14900;SDS011;7542;49.078;9.194;2023-11-21T01:37:34;0.33;;;0.30;;
14900;SDS011;7542;49.078;9.194;2023-11-21T01:38:37;0.30;;;0.30;;
14900;SDS011;7542;49.078;9.194;2023-11-21T01:39:39;0.53;;;0.30;;
14900;SDS011;7542;49.078;9.194;2023-11-21T01:40:41;0.67;;;0.40;;
14900;SDS011;7542;49.078;9.194;2023-11-21T01:41:43;0.60;;;0.60;;
14900;SDS011;7542;49.078;9.194;2023-11-21T01:42:45;0.50;;;0.50;;
14900;SDS011;7542;49.078;9.194;2023-11-21T01:43:48;0.50;;;0.50;;
14900;SDS011;7542;49.078;9.194;2023-11-21T01:44:50;0.33;;;0.33;;
14900;SDS011;7542;49.078;9.194;2023-11-21T01:45:53;0.43;;;0.43;;
14900;SDS011;7542;49.078;9.194;2023-11-21T01:46:58;0.40;;;0.40;;
14900;SDS011;7542;49.078;9.194;2023-11-21T01:48:00;0.63;;;0.63;;
14900;SDS011;7542;49.078;9.194;2023-11-21T01:49:04;0.50;;;0.50;;
14900;SDS011;7542;49.078;9.194;2023-11-21T01:50:07;0.60;;;0.60;;
14900;SDS011;7542;49.078;9.194;2023-11-21T01:51:13;0.60;;;0.60;;
14900;SDS011;7542;49.078;9.194;2023-11-21T01:52:16;1.30;;;0.50;;
14900;SDS011;7542;49.078;9.194;2023-11-21T01:53:19;0.37;;;0.37;;
14900;SDS011;7542;49.078;9.194;2023-11-21T01:54:21;0.30;;;0.30;;
14900;SDS011;7542;49.078;9.194;2023-11-21T01:55:23;0.30;;;0.30;;
14900;SDS011;7542;49.078;9.194;2023-11-21T01:56:29;0.40;;;0.40;;
14900;SDS011;7542;49.078;9.194;2023-11-21T01:57:32;0.30;;;0.30;;
14900;SDS011;7542;49.078;9.194;2023-11-21T01:58:34;0.30;;;0.30;;
14900;SDS011;7542;49.078;9.194;2023-11-21T01:59:37;0.40;;;0.40;;
14900;SDS011;7542;49.078;9.194;2023-11-21T02:00:43;0.70;;;0.70;;
14900;SDS011;7542;49.078;9.194;2023-11-21T02:01:45;0.30;;;0.30;;
14900;SDS011;7542;49.078;9.194;2023-11-21T02:02:48;0.20;;;0.20;;
14900;SDS011;7542;49.078;9.194;2023-11-21T02:03:50;0.50;;;0.50;;
14900;SDS011;7542;49.078;9.194;2023-11-21T02:04:52;0.63;;;0.40;;
14900;SDS011;7542;49.078;9.194;2023-11-21T02:05:54;0.30;;;0.30;;
14900;SDS011;7542;49.078;9.194;2023-11-21T02:06:56;0.50;;;0.50;;
14900;SDS011;7542;49.078;9.194;2023-11-21T02:07:58;0.50;;;0.50;;
14900;SDS011;7542;49.078;9.194;2023-11-21T02:09:02;0.43;;;0.40;;
14900;SDS011;7542;49.078;9.194;2023-11-21T02:10:08;0.70;;;0.47;;
14900;SDS011;7542;49.078;9.194;2023-11-21T02:11:11;0.40;;;0.40;;
14900;SDS011;7542;49.078;9.194;2023-11-21T02:12:15;0.50;;;0.50;;
14900;SDS011;7542;49.078;9.194;2023-11-21T02:13:17;0.37;;;0.37;;
14900;SDS011;7542;49.078;9.194;2023-11-21T02:14:20;0.27;;;0.27;;
14900;SDS011;7542;49.078;9.194;2023-11-21T02:15:23;0.30;;;0.30;;
14900;SDS011;7542;49.078;9.194;2023-11-21T02:16:30;0.40;;;0.40;;
14900;SDS011;7542;49.078;9.194;2023-11-21T02:17:33;0.40;;;0.40;;
14900;SDS011;7542;49.078;9.194;2023-11-21T02:18:35;0.30;;;0.30;;
14900;SDS011;7542;49.078;9.194;2023-11-21T02:19:37;0.23;;;0.23;;
14900;SDS011;7542;49.078;9.194;2023-11-21T02:20:40;0.43;;;0.40;;
14900;SDS011;7542;49.078;9.194;2023-11-21T02:21:44;0.30;;;0.30;;
14900;SDS011;7542;49.078;9.194;2023-11-21T02:22:50;0.40;;;0.40;;
14900;SDS011;7542;49.078;9.194;2023-11-21T02:23:59;0.30;;;0.30;;
14900;SDS011;7542;49.078;9.194;2023-11-21T02:25:01;0.50;;;0.50;;
14900;SDS011;7542;49.078;9.194;2023-11-21T02:26:03;0.40;;;0.40;;
14900;SDS011;7542;49.078;9.194;2023-11-21T02:27:05;0.53;;;0.53;;
14900;SDS011;7542;49.078;9.194;2023-11-21T02:28:07;0.37;;;0.37;;
14900;SDS011;7542;49.078;9.194;2023-11-21T02:29:09;0.30;;;0.30;;
14900;SDS011;7542;49.078;9.194;2023-11-21T02:30:13;0.40;;;0.40;;
14900;SDS011;7542;49.078;9.194;2023-11-21T02:31:17;0.50;;;0.50;;
14900;SDS011;7542;49.078;9.194;2023-11-21T02:32:20;0.40;;;0.40;;
14900;SDS011;7542;49.078;9.194;2023-11-21T02:33:24;0.30;;;0.30;;
14900;SDS011;7542;49.078;9.194;2023-11-21T02:34:26;0.40;;;0.40;;
14900;SDS011;7542;49.078;9.194;2023-11-21T02:35:28;0.40;;;0.40;;
14900;SDS011;7542;49.078;9.194;2023-11-21T02:36:33;0.40;;;0.40;;
14900;SDS011;7542;49.078;9.194;2023-11-21T02:37:36;0.40;;;0.40;;
14900;SDS011;7542;49.078;9.194;2023-11-21T02:38:38;0.50;;;0.40;;
14900;SDS011;7542;49.078;9.194;2023-11-21T02:39:40;0.30;;;0.30;;
14900;SDS011;7542;49.078;9.194;2023-11-21T02:40:42;0.40;;;0.40;;
14900;SDS011;7542;49.078;9.194;2023-11-21T02:41:44;0.57;;;0.57;;
14900;SDS011;7542;49.078;9.194;2023-11-21T02:42:48;0.40;;;0.40;;
14900;SDS011;7542;49.078;9.194;2023-11-21T02:43:54;0.20;;;0.20;;
14900;SDS011;7542;49.078;9.194;2023-11-21T02:44:55;0.77;;;0.43;;
14900;SDS011;7542;49.078;9.194;2023-11-21T02:45:58;0.30;;;0.30;;
14900;SDS011;7542;49.078;9.194;2023-11-21T02:47:00;0.30;;;0.30;;
14900;SDS011;7542;49.078;9.194;2023-11-21T02:48:02;0.30;;;0.30;;
14900;SDS011;7542;49.078;9.194;2023-11-21T02:49:06;0.37;;;0.37;;
14900;SDS011;7542;49.078;9.194;2023-11-21T02:50:08;0.40;;;0.40;;
14900;SDS011;7542;49.078;9.194;2023-11-21T02:51:10;0.33;;;0.33;;
14900;SDS011;7542;49.078;9.194;2023-11-21T02:52:12;0.63;;;0.63;;
14900;SDS011;7542;49.078;9.194;2023-11-21T02:53:14;0.23;;;0.23;;
14900;SDS011;7542;49.078;9.194;2023-11-21T02:54:16;0.50;;;0.50;;
14900;SDS011;7542;49.078;9.194;2023-11-21T02:55:20;0.30;;;0.30;;
14900;SDS011;7542;49.078;9.194;2023-11-21T02:56:22;0.33;;;0.33;;
14900;SDS011;7542;49.078;9.194;2023-11-21T02:57:24;0.40;;;0.40;;
14900;SDS011;7542;49.078;9.194;2023-11-21T02:58:26;0.27;;;0.27;;
14900;SDS011;7542;49.078;9.194;2023-11-21T02:59:28;0.73;;;0.20;;
14900;SDS011;7542;49.078;9.194;2023-11-21T03:00:30;0.20;;;0.20;;
14900;SDS011;7542;49.078;9.194;2023-11-21T03:01:32;0.27;;;0.27;;
14900;SDS011;7542;49.078;9.194;2023-11-21T03:02:34;0.50;;;0.50;;
14900;SDS011;7542;49.078;9.194;2023-11-21T03:03:41;0.40;;;0.40;;
14900;SDS011;7542;49.078;9.194;2023-11-21T03:04:43;0.40;;;0.40;;
14900;SDS011;7542;49.078;9.194;2023-11-21T03:05:45;0.37;;;0.37;;
14900;SDS011;7542;49.078;9.194;2023-11-21T03:06:47;0.50;;;0.50;;
14900;SDS011;7542;49.078;9.194;2023-11-21T03:07:49;0.27;;;0.27;;
14900;SDS011;7542;49.078;9.194;2023-11-21T03:08:51;0.17;;;0.17;;
14900;SDS011;7542;49.078;9.194;2023-11-21T03:09:53;0.30;;;0.30;;
14900;SDS011;7542;49.078;9.194;2023-11-21T03:10:55;0.30;;;0.30;;
14900;SDS011;7542;49.078;9.194;2023-11-21T03:11:57;0.30;;;0.30;;
14900;SDS011;7542;49.078;9.194;2023-11-21T03:12:59;0.70;;;0.30;;
14900;SDS011;7542;49.078;9.194;2023-11-21T03:14:02;0.27;;;0.27;;
14900;SDS011;7542;49.078;9.194;2023-11-21T03:15:04;0.30;;;0.30;;
14900;SDS011;7542;49.078;9.194;2023-11-21T03:16:08;0.30;;;0.30;;
14900;SDS011;7542;49.078;9.194;2023-11-21T03:17:12;0.30;;;0.30;;
14900;SDS011;7542;49.078;9.194;2023-11-21T03:18:16;0.60;;;0.33;;
14900;SDS011;7542;49.078;9.194;2023-11-21T03:19:18;0.40;;;0.40;;
14900;SDS011;7542;49.078;9.194;2023-11-21T03:20:20;0.20;;;0.20;;
14900;SDS011;7542;49.078;9.194;2023-11-21T03:21:22;0.30;;;0.30;;
14900;SDS011;7542;49.078;9.194;2023-11-21T03:22:24;0.30;;;0.30;;
14900;SDS011;7542;49.078;9.194;2023-11-21T03:23:26;0.30;;;0.30;;
14900;SDS011;7542;49.078;9.194;2023-11-21T03:24:28;0.30;;;0.30;;
14900;SDS011;7542;49.078;9.194;2023-11-21T03:25:30;0.30;;;0.30;;
14900;SDS011;7542;49.078;9.194;2023-11-21T03:26:32;0.30;;;0.30;;
14900;SDS011;7542;49.078;9.194;2023-11-21T03:27:34;0.23;;;0.23;;
14900;SDS011;7542;49.078;9.194;2023-11-21T03:28:36;0.20;;;0.20;;
14900;SDS011;7542;49.078;9.194;2023-11-21T03:29:38;0.20;;;0.20;;
14900;SDS011;7542;49.078;9.194;2023-11-21T03:30:40;0.93;;;0.27;;
14900;SDS011;7542;49.078;9.194;2023-11-21T03:31:42;0.40;;;0.40;;
14900;SDS011;7542;49.078;9.194;2023-11-21T03:32:44;0.30;;;0.30;;
14900;SDS011;7542;49.078;9.194;2023-11-21T03:33:46;0.27;;;0.27;;
14900;SDS011;7542;49.078;9.194;2023-11-21T03:34:58;0.40;;;0.40;;
14900;SDS011;7542;49.078;9.194;2023-11-21T03:36:01;0.30;;;0.30;;
14900;SDS011;7542;49.078;9.194;2023-11-21T03:37:03;0.40;;;0.40;;
14900;SDS011;7542;49.078;9.194;2023-11-21T03:38:05;0.40;;;0.40;;
14900;SDS011;7542;49.078;9.194;2023-11-21T03:39:07;0.30;;;0.30;;
14900;SDS011;7542;49.078;9.194;2023-11-21T03:40:09;0.30;;;0.30;;
14900;SDS011;7542;49.078;9.194;2023-11-21T03:41:11;0.30;;;0.30;;
14900;SDS011;7542;49.078;9.194;2023-11-21T03:42:13;0.40;;;0.33;;
14900;SDS011;7542;49.078;9.194;2023-11-21T03:43:15;0.30;;;0.30;;
14900;SDS011;7542;49.078;9.194;2023-11-21T03:44:17;0.70;;;0.30;;
14900;SDS011;7542;49.078;9.194;2023-11-21T03:45:19;0.37;;;0.37;;
14900;SDS011;7542;49.078;9.194;2023-11-21T03:46:21;0.20;;;0.20;;
14900;SDS011;7542;49.078;9.194;2023-11-21T03:47:22;0.40;;;0.40;;
14900;SDS011;7542;49.078;9.194;2023-11-21T03:48:25;0.40;;;0.40;;
14900;SDS011;7542;49.078;9.194;2023-11-21T03:49:27;0.57;;;0.27;;
14900;SDS011;7542;49.078;9.194;2023-11-21T03:50:30;0.20;;;0.20;;
14900;SDS011;7542;49.078;9.194;2023-11-21T03:51:32;0.20;;;0.20;;
14900;SDS011;7542;49.078;9.194;2023-11-21T03:52:35;0.27;;;0.27;;
14900;SDS011;7542;49.078;9.194;2023-11-21T03:53:38;0.23;;;0.23;;
14900;SDS011;7542;49.078;9.194;2023-11-21T03:54:40;0.20;;;0.20;;
14900;SDS011;7542;49.078;9.194;2023-11-21T03:55:42;0.40;;;0.30;;
14900;SDS011;7542;49.078;9.194;2023-11-21T03:56:44;0.40;;;0.30;;
14900;SDS011;7542;49.078;9.194;2023-11-21T03:57:46;0.20;;;0.20;;
14900;SDS011;7542;49.078;9.194;2023-11-21T03:58:48;0.40;;;0.40;;
14900;SDS011;7542;49.078;9.194;2023-11-21T03:59:50;0.20;;;0.20;;
14900;SDS011;7542;49.078;9.194;2023-11-21T04:00:52;0.30;;;0.30;;
14900;SDS011;7542;49.078;9.194;2023-11-21T04:01:57;0.23;;;0.23;;
14900;SDS011;7542;49.078;9.194;2023-11-21T04:03:00;0.70;;;0.20;;
14900;SDS011;7542;49.078;9.194;2023-11-21T04:04:02;0.20;;;0.20;;
14900;SDS011;7542;49.078;9.194;2023-11-21T04:05:04;0.37;;;0.37;;
14900;SDS011;7542;49.078;9.194;2023-11-21T04:06:08;0.27;;;0.27;;
14900;SDS011;7542;49.078;9.194;2023-11-21T04:07:10;0.17;;;0.17;;
14900;SDS011;7542;49.078;9.194;2023-11-21T04:08:14;0.30;;;0.30;;
14900;SDS011;7542;49.078;9.194;2023-11-21T04:09:16;0.30;;;0.30;;
14900;SDS011;7542;49.078;9.194;2023-11-21T04:10:18;0.10;;;0.10;;
14900;SDS011;7542;49.078;9.194;2023-11-21T04:11:21;0.30;;;0.10;;
14900;SDS011;7542;49.078;9.194;2023-11-21T04:12:23;0.30;;;0.30;;
14900;SDS011;7542;49.078;9.194;2023-11-21T04:13:24;0.37;;;0.33;;
14900;SDS011;7542;49.078;9.194;2023-11-21T04:14:26;0.13;;;0.13;;
14900;SDS011;7542;49.078;9.194;2023-11-21T04:15:29;0.40;;;0.40;;
14900;SDS011;7542;49.078;9.194;2023-11-21T04:16:31;0.30;;;0.30;;
14900;SDS011;7542;49.078;9.194;2023-11-21T04:17:33;0.40;;;0.40;;
14900;SDS011;7542;49.078;9.194;2023-11-21T04:18:35;0.30;;;0.30;;
14900;SDS011;7542;49.078;9.194;2023-11-21T04:19:38;0.33;;;0.23;;
14900;SDS011;7542;49.078;9.194;2023-11-21T04:20:40;0.20;;;0.20;;
14900;SDS011;7542;49.078;9.194;2023-11-21T04:21:42;0.20;;;0.20;;
14900;SDS011;7542;49.078;9.194;2023-11-21T04:22:45;0.23;;;0.23;;
14900;SDS011;7542;49.078;9.194;2023-11-21T04:23:47;0.63;;;0.23;;
14900;SDS011;7542;49.078;9.194;2023-11-21T04:24:49;0.40;;;0.40;;
14900;SDS011;7542;49.078;9.194;2023-11-21T04:25:53;0.30;;;0.30;;
14900;SDS011;7542;49.078;9.194;2023-11-21T04:26:57;0.20;;;0.20;;
14900;SDS011;7542;49.078;9.194;2023-11-21T04:27:59;0.30;;;0.30;;
14900;SDS011;7542;49.078;9.194;2023-11-21T04:29:01;0.30;;;0.30;;
14900;SDS011;7542;49.078;9.194;2023-11-21T04:30:03;0.20;;;0.20;;
14900;SDS011;7542;49.078;9.194;2023-11-21T04:31:06;0.23;;;0.20;;
14900;SDS011;7542;49.078;9.194;2023-11-21T04:32:08;0.40;;;0.40;;
14900;SDS011;7542;49.078;9.194;2023-11-21T04:33:11;0.10;;;0.10;;
14900;SDS011;7542;49.078;9.194;2023-11-21T04:34:13;0.17;;;0.17;;
14900;SDS011;7542;49.078;9.194;2023-11-21T04:35:15;0.20;;;0.20;;
14900;SDS011;7542;49.078;9.194;2023-11-21T04:36:17;0.37;;;0.20;;
14900;SDS011;7542;49.078;9.194;2023-11-21T04:37:19;0.20;;;0.20;;
14900;SDS011;7542;49.078;9.194;2023-11-21T04:38:20;0.50;;;0.20;;
14900;SDS011;7542;49.078;9.194;2023-11-21T04:39:22;0.17;;;0.17;;
14900;SDS011;7542;49.078;9.194;2023-11-21T04:40:25;0.30;;;0.30;;
14900;SDS011;7542;49.078;9.194;2023-11-21T04:41:28;0.10;;;0.10;;
14900;SDS011;7542;49.078;9.194;2023-11-21T04:42:30;0.23;;;0.23;;
14900;SDS011;7542;49.078;9.194;2023-11-21T04:43:32;0.20;;;0.20;;
14900;SDS011;7542;49.078;9.194;2023-11-21T04:44:34;0.30;;;0.30;;
14900;SDS011;7542;49.078;9.194;2023-11-21T04:45:36;0.20;;;0.20;;
14900;SDS011;7542;49.078;9.194;2023-11-21T04:46:38;0.30;;;0.30;;
14900;SDS011;7542;49.078;9.194;2023-11-21T04:47:40;0.30;;;0.30;;
14900;SDS011;7542;49.078;9.194;2023-11-21T04:48:42;0.30;;;0.30;;
14900;SDS011;7542;49.078;9.194;2023-11-21T04:49:45;0.20;;;0.20;;
14900;SDS011;7542;49.078;9.194;2023-11-21T04:50:50;0.10;;;0.10;;
14900;SDS011;7542;49.078;9.194;2023-11-21T04:51:53;0.23;;;0.23;;
14900;SDS011;7542;49.078;9.194;2023-11-21T04:52:55;0.30;;;0.30;;
14900;SDS011;7542;49.078;9.194;2023-11-21T04:53:57;0.10;;;0.10;;
14900;SDS011;7542;49.078;9.194;2023-11-21T04:54:59;0.20;;;0.20;;
14900;SDS011;7542;49.078;9.194;2023-11-21T04:56:03;0.40;;;0.40;;
14900;SDS011;7542;49.078;9.194;2023-11-21T04:57:06;0.47;;;0.23;;
14900;SDS011;7542;49.078;9.194;2023-11-21T04:58:11;0.40;;;0.40;;
14900;SDS011;7542;49.078;9.194;2023-11-21T04:59:13;0.30;;;0.30;;
14900;SDS011;7542;49.078;9.194;2023-11-21T05:00:15;0.13;;;0.13;;
14900;SDS011;7542;49.078;9.194;2023-11-21T05:01:18;0.20;;;0.20;;
14900;SDS011;7542;49.078;9.194;2023-11-21T05:02:20;0.30;;;0.30;;
14900;SDS011;7542;49.078;9.194;2023-11-21T05:03:35;0.10;;;0.10;;
14900;SDS011;7542;49.078;9.194;2023-11-21T05:04:40;0.60;;;0.27;;
14900;SDS011;7542;49.078;9.194;2023-11-21T05:05:44;0.10;;;0.10;;
14900;SDS011;7542;49.078;9.194;2023-11-21T05:06:46;0.20;;;0.20;;
14900;SDS011;7542;49.078;9.194;2023-11-21T05:07:49;0.20;;;0.20;;
14900;SDS011;7542;49.078;9.194;2023-11-21T05:08:51;0.20;;;0.20;;
14900;SDS011;7542;49.078;9.194;2023-11-21T05:09:52;0.27;;;0.27;;
14900;SDS011;7542;49.078;9.194;2023-11-21T05:10:54;0.10;;;0.10;;
14900;SDS011;7542;49.078;9.194;2023-11-21T05:11:56;0.20;;;0.20;;
14900;SDS011;7542;49.078;9.194;2023-11-21T05:12:58;0.73;;;0.10;;
14900;SDS011;7542;49.078;9.194;2023-11-21T05:14:00;0.17;;;0.17;;
14900;SDS011;7542;49.078;9.194;2023-11-21T05:15:06;0.20;;;0.20;;
14900;SDS011;7542;49.078;9.194;2023-11-21T05:16:13;0.20;;;0.20;;
14900;SDS011;7542;49.078;9.194;2023-11-21T05:17:15;0.10;;;0.10;;
14900;SDS011;7542;49.078;9.194;2023-11-21T05:18:18;0.20;;;0.20;;
14900;SDS011;7542;49.078;9.194;2023-11-21T05:19:20;0.70;;;0.20;;
14900;SDS011;7542;49.078;9.194;2023-11-21T05:20:22;0.17;;;0.17;;
14900;SDS011;7542;49.078;9.194;2023-11-21T05:21:25;0.20;;;0.20;;
14900;SDS011;7542;49.078;9.194;2023-11-21T05:22:33;0.20;;;0.20;;
14900;SDS011;7542;49.078;9.194;2023-11-21T05:23:36;0.10;;;0.10;;
14900;SDS011;7542;49.078;9.194;2023-11-21T05:24:38;0.10;;;0.10;;
14900;SDS011;7542;49.078;9.194;2023-11-21T05:25:40;0.30;;;0.30;;
14900;SDS011;7542;49.078;9.194;2023-11-21T05:26:42;0.10;;;0.10;;
14900;SDS011;7542;49.078;9.194;2023-11-21T05:27:45;0.20;;;0.20;;
14900;SDS011;7542;49.078;9.194;2023-11-21T05:28:48;0.30;;;0.20;;
14900;SDS011;7542;49.078;9.194;2023-11-21T05:29:50;0.27;;;0.27;;
14900;SDS011;7542;49.078;9.194;2023-11-21T05:30:52;0.23;;;0.23;;
14900;SDS011;7542;49.078;9.194;2023-11-21T05:32:14;0.43;;;0.30;;
14900;SDS011;7542;49.078;9.194;2023-11-21T05:33:16;0.63;;;0.40;;
14900;SDS011;7542;49.078;9.194;2023-11-21T05:34:18;0.20;;;0.20;;
14900;SDS011;7542;49.078;9.194;2023-11-21T05:35:21;0.20;;;0.20;;
14900;SDS011;7542;49.078;9.194;2023-11-21T05:36:23;0.20;;;0.20;;
14900;SDS011;7542;49.078;9.194;2023-11-21T05:37:25;0.23;;;0.23;;
14900;SDS011;7542;49.078;9.194;2023-11-21T05:38:28;0.20;;;0.20;;
14900;SDS011;7542;49.078;9.194;2023-11-21T05:39:31;0.10;;;0.10;;
14900;SDS011;7542;49.078;9.194;2023-11-21T05:40:33;0.10;;;0.10;;
14900;SDS011;7542;49.078;9.194;2023-11-21T05:41:35;0.20;;;0.20;;
14900;SDS011;7542;49.078;9.194;2023-11-21T05:42:36;0.20;;;0.20;;
14900;SDS011;7542;49.078;9.194;2023-11-21T05:43:41;0.10;;;0.10;;
14900;SDS011;7542;49.078;9.194;2023-11-21T05:44:44;0.23;;;0.23;;
14900;SDS011;7542;49.078;9.194;2023-11-21T05:45:46;0.50;;;0.20;;
14900;SDS011;7542;49.078;9.194;2023-11-21T05:46:48;0.10;;;0.10;;
14900;SDS011;7542;49.078;9.194;2023-11-21T05:47:50;0.37;;;0.37;;
14900;SDS011;7542;49.078;9.194;2023-11-21T05:48:52;0.20;;;0.20;;
14900;SDS011;7542;49.078;9.194;2023-11-21T05:49:54;0.30;;;0.30;;
14900;SDS011;7542;49.078;9.194;2023-11-21T05:50:56;0.23;;;0.23;;
14900;SDS011;7542;49.078;9.194;2023-11-21T05:51:58;0.20;;;0.20;;
14900;SDS011;7542;49.078;9.194;2023-11-21T05:53:03;0.30;;;0.30;;
14900;SDS011;7542;49.078;9.194;2023-11-21T05:54:06;0.23;;;0.23;;
14900;SDS011;7542;49.078;9.194;2023-11-21T05:55:09;0.20;;;0.20;;
14900;SDS011;7542;49.078;9.194;2023-11-21T05:56:12;0.20;;;0.20;;
14900;SDS011;7542;49.078;9.194;2023-11-21T05:57:15;0.30;;;0.30;;
14900;SDS011;7542;49.078;9.194;2023-11-21T05:58:17;0.20;;;0.20;;
14900;SDS011;7542;49.078;9.194;2023-11-21T05:59:19;0.33;;;0.20;;
14900;SDS011;7542;49.078;9.194;2023-11-21T06:00:24;0.20;;;0.20;;
14900;SDS011;7542;49.078;9.194;2023-11-21T06:01:28;0.17;;;0.17;;
14900;SDS011;7542;49.078;9.194;2023-11-21T06:02:30;0.13;;;0.13;;
14900;SDS011;7542;49.078;9.194;2023-11-21T06:03:33;0.30;;;0.30;;
14900;SDS011;7542;49.078;9.194;2023-11-21T06:04:35;0.30;;;0.30;;
14900;SDS011;7542;49.078;9.194;2023-11-21T06:05:37;0.10;;;0.10;;
14900;SDS011;7542;49.078;9.194;2023-11-21T06:06:39;0.20;;;0.20;;
14900;SDS011;7542;49.078;9.194;2023-11-21T06:07:42;0.30;;;0.30;;
14900;SDS011;7542;49.078;9.194;2023-11-21T06:08:43;0.30;;;0.30;;
14900;SDS011;7542;49.078;9.194;2023-11-21T06:09:45;0.20;;;0.20;;
14900;SDS011;7542;49.078;9.194;2023-11-21T06:10:49;0.37;;;0.10;;
14900;SDS011;7542;49.078;9.194;2023-11-21T06:11:51;0.20;;;0.20;;
14900;SDS011;7542;49.078;9.194;2023-11-21T06:12:53;0.20;;;0.20;;
14900;SDS011;7542;49.078;9.194;2023-11-21T06:13:56;0.30;;;0.30;;
14900;SDS011;7542;49.078;9.194;2023-11-21T06:14:58;0.20;;;0.20;;
14900;SDS011;7542;49.078;9.194;2023-11-21T06:16:00;0.43;;;0.20;;
14900;SDS011;7542;49.078;9.194;2023-11-21T06:17:02;0.50;;;0.30;;
14900;SDS011;7542;49.078;9.194;2023-11-21T06:18:05;0.20;;;0.20;;
14900;SDS011;7542;49.078;9.194;2023-11-21T06:19:15;0.37;;;0.37;;
14900;SDS011;7542;49.078;9.194;2023-11-21T06:20:17;0.10;;;0.10;;
14900;SDS011;7542;49.078;9.194;2023-11-21T06:21:20;0.10;;;0.10;;
14900;SDS011;7542;49.078;9.194;2023-11-21T06:22:22;0.20;;;0.20;;
14900;SDS011;7542;49.078;9.194;2023-11-21T06:23:24;0.20;;;0.20;;